Flight Track Log - Related Links

Times and Time Zones

All times are in EDT time to prevent confusion due to time zone crossing. See the N449ND flight status page for this flight to view local times or setup timezone preferences in your user account.

Time Position Orientation Groundspeed Altitude Reporting Facility
EDT Latitude Longitude Course Direction KTS MPH feet Rate Location/Type
Wed 06:58:03 PM 27.5156 -80.4136 106° East 101 116 3,000  Level Miami Center
Wed 06:59:03 PM 27.4983 -80.3475 106° East 50 58 700 -1,150 Descending Miami Center
Wed 07:00:03 PM 27.4969 -80.3242 94° East 65 75 700 500 Level Miami Center
Wed 07:01:15 PM 27.4997 -80.2986 83° East 72 83 1,800 727 Climbing Miami Center
Wed 07:02:15 PM 27.5022 -80.2728 84° East 92 106 2,300 550 Climbing Miami Center
Wed 07:03:15 PM 27.5008 -80.2494 94° East 78 90 2,900 400 Climbing Miami Center
Wed 07:04:15 PM 27.5097 -80.2217 70° East 78 90 3,100 45 Climbing Miami Center
Wed 07:05:27 PM 27.5303 -80.2433 317° Northwest 60 69 3,000 -45 Descending Miami Center
Wed 07:06:27 PM 27.5522 -80.2767 307° West 107 123 3,000  Level Miami Center
Wed 07:07:27 PM 27.5706 -80.3031 308° West 112 129 3,000  Level Miami Center
Wed 07:08:27 PM 27.5883 -80.3386 299° West 122 140 3,000  Level Miami Center
Wed 07:09:39 PM 27.6064 -80.3697 303° West 122 140 3,000  Level Miami Center
Wed 07:10:39 PM 27.5994 -80.3975 254° West 96 110 3,000  Level Miami Center
Wed 07:11:39 PM 27.5844 -80.4158 227° Southwest 99 114 3,000  Level Miami Center
Wed 07:12:39 PM 27.5689 -80.4575 247° West 112 129 3,000  Level Miami Center
Wed 07:13:39 PM 27.5617 -80.4925 257° West 112 129 3,000  Level Miami Center
Wed 07:14:39 PM 27.5672 -80.5231 282° West 112 129 3,000  Level Miami Center
Wed 07:15:39 PM 27.5767 -80.5586 287° West 112 129 3,000  Level Miami Center
Wed 07:16:39 PM 27.6011 -80.5875 314° West 117 135 3,000  Level Miami Center
Wed 07:17:39 PM 27.6256 -80.6092 322° Northwest 111 128 3,000 -100 Level Miami Center
Wed 07:18:39 PM 27.6483 -80.6169 343° North 111 128 2,800 -650 Descending Miami Center
Wed 07:19:39 PM 27.6814 -80.6228 351° North 105 121 1,700 -650 Descending Miami Center
Wed 07:20:39 PM 27.7108 -80.6192 North 105 121 1,500 -50 Descending Miami Center
Wed 07:21:39 PM 27.7117 -80.5911 88° East 70 81 1,600  Climbing Miami Center
Wed 07:22:39 PM 27.7019 -80.5625 111° Southeast 86 99 1,500 -200 Descending Miami Center
Wed 07:23:39 PM 27.6942 -80.5364 109° East 94 108 1,200 -150 Descending Miami Center
Wed 07:24:39 PM 27.6844 -80.5128 115° Southeast 94 108 1,200  Level Miami Center
Wed 07:25:39 PM 27.6767 -80.4844 107° East 94 108 1,200 -300 Level Miami Center
Wed 07:26:39 PM 27.6689 -80.4653 115° Southeast 83 96 600 -400 Descending Miami Center
Wed 07:27:39 PM 27.6611 -80.4439 112° Southeast 78 90 400 50 Descending Miami Center
Wed 07:28:39 PM 27.6553 -80.4250 109° East 73 84 700 450 Climbing Miami Center
Wed 07:29:39 PM 27.6558 -80.4017 88° East 67 77 1,300 600 Climbing Miami Center
Wed 07:30:39 PM 27.6731 -80.3811 47° Northeast 72 83 1,900 850 Climbing Miami Center
Wed 07:31:39 PM 27.6881 -80.3606 51° Northeast 83 96 3,000 500 Climbing Miami Center
Wed 07:32:39 PM 27.7011 -80.3422 51° Northeast 83 96 2,900 50 Descending Miami Center
Wed 07:33:39 PM 27.7164 -80.3192 53° Northeast 83 96 3,100 100 Climbing Miami Center
Wed 07:34:39 PM 27.7336 -80.2961 50° Northeast 88 101 3,100 -50 Level Miami Center
Wed 07:35:39 PM 27.7547 -80.2875 20° North 74 85 3,000 -100 Descending Miami Center
Wed 07:36:39 PM 27.7572 -80.3486 273° West 65 75 2,900  Descending Miami Center
Wed 07:37:39 PM 27.7628 -80.3839 280° West 105 121 3,000 100 Climbing Miami Center
Wed 07:38:39 PM 27.7683 -80.4144 282° West 118 136 3,100  Climbing Miami Center
Wed 07:39:39 PM 27.7756 -80.4569 281° West 123 142 3,000 -50 Descending Miami Center
Wed 07:40:39 PM 27.7831 -80.4900 284° West 123 142 3,000  Level Miami Center
Wed 07:41:39 PM 27.7883 -80.5278 279° West 123 142 3,000 50 Level Miami Center
Wed 07:42:39 PM 27.7939 -80.5586 282° West 123 142 3,100 -150 Climbing Miami Center
Wed 07:43:39 PM 27.7847 -80.5864 250° West 115 132 2,700 -550 Descending Miami Center
Wed 07:44:39 PM 27.7572 -80.5994 203° Southwest 96 110 2,000 -350 Descending Miami Center
Wed 07:45:39 PM 27.7297 -80.6128 203° Southwest 107 123 2,000 -100 Level Miami Center
Wed 07:46:39 PM 27.7136 -80.5981 141° Southeast 90 104 1,800 -250 Descending Miami Center
Wed 07:47:39 PM 27.7058 -80.5744 110° East 81 93 1,500 -150 Descending Miami Center
Wed 07:48:39 PM 27.6958 -80.5506 115° Southeast 86 99 1,500  Level Miami Center
Wed 07:49:39 PM 27.6864 -80.5197 109° East 93 107 1,500 -50 Level Miami Center
Wed 07:50:39 PM 27.6806 -80.5033 112° Southeast 83 96 1,400 -500 Descending Miami Center
Wed 07:51:39 PM 27.6728 -80.4772 109° East 77 89 500 -450 Descending Miami Center
Wed 07:52:39 PM 27.6650 -80.4558 112° Southeast 72 83 500  Level Miami Center
Wed 07:53:39 PM 27.6572 -80.4297 109° East 72 83 500 250 Level Miami Center
Wed 07:54:39 PM 27.6536 -80.4061 100° East 72 83 1,000 550 Climbing Miami Center
Wed 07:55:39 PM 27.6500 -80.3828 100° East 72 83 1,600 550 Climbing Miami Center
Wed 07:56:39 PM 27.6486 -80.3592 94° East 72 83 2,100 550 Climbing Miami Center
Wed 07:57:39 PM 27.6428 -80.3381 107° East 72 83 2,700 450 Climbing Miami Center
Wed 07:58:39 PM 27.6389 -80.3192 103° East 72 83 3,000 150 Climbing Miami Center
Wed 07:59:39 PM 27.6181 -80.3231 189° South 60 69 3,000  Level Miami Center
Wed 08:00:39 PM 27.6172 -80.3583 268° West 103 119 3,000  Level Miami Center
Wed 08:01:39 PM 27.6122 -80.3886 259° West 109 125 3,000  Level Miami Center
Wed 08:02:39 PM 27.6094 -80.4236 265° West 109 125 3,000 -400 Level Miami Center
Wed 08:03:39 PM 27.6042 -80.4611 261° West 109 125 2,200 -500 Descending Miami Center
Wed 08:04:39 PM 27.5992 -80.4983 261° West 115 132 2,000 -50 Descending Miami Center
Wed 08:05:39 PM 27.5942 -80.5333 261° West 120 138 2,100  Climbing Miami Center
Wed 08:06:39 PM 27.5869 -80.5658 256° West 125 144 2,000  Descending Miami Center
Wed 08:07:39 PM 27.5758 -80.5958 247° West 120 138 2,100 50 Climbing Miami Center
Wed 08:08:39 PM 27.5444 -80.5972 182° South 97 112 2,100  Level Miami Center
Wed 08:09:39 PM 27.5172 -80.5964 178° South 102 117 2,100 -50 Level Miami Center
Wed 08:10:39 PM 27.4947 -80.5864 158° South 102 117 2,000 -100 Descending Miami Center
Wed 08:11:39 PM 27.4953 -80.5628 88° East 76 87 1,900 -50 Descending Miami Center
Wed 08:12:39 PM 27.4981 -80.5350 84° East 89 102 1,900 -50 Level Miami Center
Wed 08:13:39 PM 27.4967 -80.4997 93° East 89 102 1,800 -100 Descending Miami Center
Wed 08:14:39 PM 27.4975 -80.4739 88° East 83 96 1,700 -400 Descending Miami Center
Wed 08:15:39 PM 27.4981 -80.4506 88° East 83 96 1,000 -450 Descending Miami Center
Wed 08:16:39 PM 27.4964 -80.4294 95° East 83 96 800 -250 Descending Miami Center
Wed 08:17:39 PM 27.4992 -80.4039 83° East 78 90 500 -150 Descending Miami Center
Wed 08:18:39 PM 27.4975 -80.3828 95° East 78 90 500 250 Level Miami Center
Wed 08:19:39 PM 27.4833 -80.3683 138° Southeast 63 72 1,000 500 Climbing Miami Center
Wed 08:20:51 PM 27.4561 -80.3722 187° South 81 93 1,600 500 Climbing Miami Center
Wed 08:22:03 PM 27.4308 -80.3783 192° South 92 106 2,200 545 Climbing Miami Center
Wed 08:23:03 PM 27.4217 -80.4108 252° West 87 100 2,800 450 Climbing Miami Center
Wed 08:24:03 PM 27.4211 -80.4411 269° West 107 123 3,100 100 Climbing Miami Center
Wed 08:25:03 PM 27.4200 -80.4808 268° West 113 130 3,000  Descending Miami Center
Wed 08:26:03 PM 27.4192 -80.5136 268° West 113 130 3,100  Climbing Miami Center
Wed 08:27:03 PM 27.4186 -80.5417 269° West 100 115 3,000 -50 Descending Miami Center
Wed 08:28:03 PM 27.4386 -80.5750 304° West 105 121 3,000  Level Miami Center
Wed 08:29:03 PM 27.4567 -80.6039 305° West 110 127 3,000 -400 Level Miami Center
Wed 08:30:03 PM 27.4744 -80.6347 303° West 110 127 2,200 -500 Descending Miami Center
Wed 08:31:03 PM 27.4978 -80.6239 22° Northeast 81 93 2,000 -50 Descending Miami Center
Wed 08:32:03 PM 27.4986 -80.5933 88° East 66 76 2,100 -50 Climbing Miami Center
Wed 08:33:03 PM 27.4992 -80.5725 88° East 83 96 1,900 -100 Descending Miami Center
Wed 08:34:03 PM 27.4978 -80.5419 93° East 88 101 1,900 -50 Level Miami Center
Wed 08:35:03 PM 27.4986 -80.5114 88° East 88 101 1,800 -50 Descending Miami Center
Wed 08:36:03 PM 27.4992 -80.4833 89° East 81 93 1,800 -200 Level Miami Center
Wed 08:37:03 PM 27.4978 -80.4622 94° East 81 93 1,400 -364 Descending Miami Center
Wed 08:38:15 PM 27.4983 -80.4389 88° East 81 93 1,000 -409 Descending Miami Center
Wed 08:39:15 PM 27.4992 -80.4061 88° East 81 93 500 -500 Descending Miami Center
Wed 08:41:00 PM 27.4975 -80.3726 180° South  Level Estimated

Login

Don't have an account? Register now (free) for customized features, flight alerts, and more!